createdAt,value
2018-09-25T00:00:26.047Z,1029.99
2018-09-25T00:01:26.027Z,1030.00
2018-09-25T00:02:26.000Z,1030.01
2018-09-25T00:03:25.989Z,1029.96
2018-09-25T00:04:25.964Z,1030.00
2018-09-25T00:05:25.940Z,1030.01
2018-09-25T00:06:25.914Z,1030.01
2018-09-25T00:07:25.894Z,1030.00
2018-09-25T00:08:25.871Z,1030.01
2018-09-25T00:09:25.852Z,1030.02
2018-09-25T00:10:25.840Z,1030.01
2018-09-25T00:11:25.808Z,1030.01
2018-09-25T00:12:25.791Z,1029.98
2018-09-25T00:13:25.767Z,1029.98
2018-09-25T00:14:25.749Z,1030.01
2018-09-25T00:15:25.725Z,1030.00
2018-09-25T00:16:25.704Z,1029.96
2018-09-25T00:17:25.682Z,1029.94
2018-09-25T00:18:25.660Z,1029.96
2018-09-25T00:19:25.639Z,1029.96
2018-09-25T00:20:25.639Z,1030.00
2018-09-25T00:21:25.596Z,1029.99
2018-09-25T00:22:25.575Z,1030.02
2018-09-25T00:23:25.552Z,1030.00
2018-09-25T00:24:25.531Z,1030.06
2018-09-25T00:25:25.508Z,1030.06
2018-09-25T00:26:25.487Z,1030.02
2018-09-25T00:27:25.467Z,1030.03
2018-09-25T00:28:25.445Z,1030.01
2018-09-25T00:29:25.424Z,1029.99
2018-09-25T00:30:25.402Z,1030.05
2018-09-25T00:31:25.380Z,1030.03
2018-09-25T00:32:25.363Z,1030.02
2018-09-25T00:33:25.363Z,1030.01
2018-09-25T00:34:25.326Z,1029.99
2018-09-25T00:35:25.299Z,1030.01
2018-09-25T00:36:25.273Z,1030.04
2018-09-25T00:37:25.251Z,1030.04
2018-09-25T00:38:25.231Z,1030.04
2018-09-25T00:39:25.208Z,1030.05
2018-09-25T00:40:25.188Z,1030.03
2018-09-25T00:41:25.169Z,1030.07
2018-09-25T00:42:25.147Z,1030.06
2018-09-25T00:43:25.124Z,1030.07
2018-09-25T00:44:25.104Z,1030.12
2018-09-25T00:45:25.081Z,1030.09
2018-09-25T00:46:25.059Z,1030.09
2018-09-25T00:47:25.040Z,1030.10
2018-09-25T00:48:25.018Z,1030.07
2018-09-25T00:49:24.996Z,1030.06
2018-09-25T00:50:24.974Z,1030.09
2018-09-25T00:51:24.953Z,1030.11
2018-09-25T00:52:24.934Z,1030.15
2018-09-25T00:53:24.911Z,1030.14
2018-09-25T00:54:24.887Z,1030.12
2018-09-25T00:55:24.865Z,1030.13
2018-09-25T00:56:24.862Z,1030.14
2018-09-25T00:57:24.827Z,1030.13
2018-09-25T00:58:24.806Z,1030.15
2018-09-25T00:59:24.783Z,1030.19
2018-09-25T01:00:24.759Z,1030.16
2018-09-25T01:01:24.737Z,1030.16
2018-09-25T01:02:24.716Z,1030.18
2018-09-25T01:03:24.719Z,1030.16
2018-09-25T01:04:24.694Z,1030.14
2018-09-25T01:05:24.652Z,1030.15
2018-09-25T01:06:24.628Z,1030.15
2018-09-25T01:07:24.607Z,1030.12
2018-09-25T01:08:24.586Z,1030.11
2018-09-25T01:09:24.563Z,1030.15
2018-09-25T01:10:24.546Z,1030.14
2018-09-25T01:11:24.520Z,1030.12
2018-09-25T01:12:24.499Z,1030.14
2018-09-25T01:13:24.477Z,1030.14
2018-09-25T01:14:24.457Z,1030.14
2018-09-25T01:15:24.433Z,1030.12
2018-09-25T01:16:24.414Z,1030.18
2018-09-25T01:17:24.391Z,1030.18
2018-09-25T01:18:24.375Z,1030.20
2018-09-25T01:19:24.347Z,1030.20
2018-09-25T01:20:24.329Z,1030.21
2018-09-25T01:21:24.309Z,1030.20
2018-09-25T01:22:24.308Z,1030.20
2018-09-25T01:23:24.268Z,1030.19
2018-09-25T01:24:24.240Z,1030.23
2018-09-25T01:25:24.255Z,1030.22
2018-09-25T01:26:24.199Z,1030.27
2018-09-25T01:27:24.178Z,1030.25
2018-09-25T01:28:24.161Z,1030.25
2018-09-25T01:29:24.132Z,1030.23
2018-09-25T01:30:24.109Z,1030.20
2018-09-25T01:31:24.089Z,1030.25
2018-09-25T01:32:24.066Z,1030.24
2018-09-25T01:33:24.046Z,1030.26
2018-09-25T01:34:24.025Z,1030.25
2018-09-25T01:35:24.002Z,1030.24
2018-09-25T01:36:23.980Z,1030.21
2018-09-25T01:37:23.962Z,1030.24
2018-09-25T01:38:23.936Z,1030.27
2018-09-25T01:39:23.917Z,1030.24
2018-09-25T01:40:23.905Z,1030.23
2018-09-25T01:41:23.875Z,1030.25
2018-09-25T01:42:23.866Z,1030.25
2018-09-25T01:43:23.828Z,1030.25
2018-09-25T01:44:23.814Z,1030.21
2018-09-25T01:45:23.784Z,1030.20
2018-09-25T01:46:23.766Z,1030.23
2018-09-25T01:47:23.741Z,1030.22
2018-09-25T01:48:23.732Z,1030.24
2018-09-25T01:49:23.695Z,1030.20
2018-09-25T01:50:23.678Z,1030.24
2018-09-25T01:51:23.657Z,1030.25
2018-09-25T01:52:23.635Z,1030.24
2018-09-25T01:53:23.610Z,1030.25
2018-09-25T01:54:23.590Z,1030.22
2018-09-25T01:55:23.566Z,1030.23
2018-09-25T01:56:23.545Z,1030.22
2018-09-25T01:57:23.522Z,1030.22
2018-09-25T01:58:23.504Z,1030.20
2018-09-25T01:59:23.480Z,1030.23
2018-09-25T02:00:23.458Z,1030.19
2018-09-25T02:01:23.436Z,1030.19
2018-09-25T02:02:23.413Z,1030.21
2018-09-25T02:03:23.392Z,1030.21
2018-09-25T02:04:23.372Z,1030.20
2018-09-25T02:05:23.348Z,1030.18
2018-09-25T02:06:23.332Z,1030.20
2018-09-25T02:07:23.305Z,1030.21
2018-09-25T02:08:23.284Z,1030.24
2018-09-25T02:09:23.260Z,1030.25
2018-09-25T02:10:23.237Z,1030.25
2018-09-25T02:11:23.234Z,1030.26
2018-09-25T02:12:23.197Z,1030.28
2018-09-25T02:13:23.175Z,1030.30
2018-09-25T02:14:23.154Z,1030.33
2018-09-25T02:15:23.129Z,1030.30
2018-09-25T02:16:23.108Z,1030.34
2018-09-25T02:17:23.085Z,1030.34
2018-09-25T02:18:23.064Z,1030.32
2018-09-25T02:19:23.047Z,1030.33
2018-09-25T02:20:23.025Z,1030.35
2018-09-25T02:21:22.997Z,1030.33
2018-09-25T02:22:22.975Z,1030.30
2018-09-25T02:23:22.953Z,1030.33
2018-09-25T02:24:22.938Z,1030.30
2018-09-25T02:25:22.916Z,1030.34
2018-09-25T02:26:22.888Z,1030.36
2018-09-25T02:27:22.867Z,1030.36
2018-09-25T02:28:22.844Z,1030.36
2018-09-25T02:29:22.822Z,1030.39
2018-09-25T02:30:22.800Z,1030.41
2018-09-25T02:31:22.784Z,1030.43
2018-09-25T02:32:22.761Z,1030.46
2018-09-25T02:33:22.734Z,1030.47
2018-09-25T02:34:22.713Z,1030.47
2018-09-25T02:35:22.690Z,1030.42
2018-09-25T02:36:22.679Z,1030.44
2018-09-25T02:37:22.645Z,1030.44
2018-09-25T02:38:22.636Z,1030.47
2018-09-25T02:39:22.603Z,1030.46
2018-09-25T02:40:22.580Z,1030.48
2018-09-25T02:41:22.557Z,1030.48
2018-09-25T02:42:22.535Z,1030.44
2018-09-25T02:43:22.521Z,1030.43
2018-09-25T02:44:22.492Z,1030.45
2018-09-25T02:45:22.487Z,1030.45
2018-09-25T02:46:22.448Z,1030.49
2018-09-25T02:47:22.428Z,1030.47
2018-09-25T02:48:22.404Z,1030.49
2018-09-25T02:49:22.385Z,1030.46
2018-09-25T02:50:22.382Z,1030.44
2018-09-25T02:51:22.351Z,1030.47
2018-09-25T02:52:22.322Z,1030.49
2018-09-25T02:53:22.292Z,1030.47
2018-09-25T02:54:22.271Z,1030.47
2018-09-25T02:55:22.249Z,1030.48
2018-09-25T02:56:22.252Z,1030.48
2018-09-25T02:57:22.215Z,1030.42
2018-09-25T02:58:22.184Z,1030.45
2018-09-25T02:59:22.168Z,1030.46
2018-09-25T03:00:22.139Z,1030.45
2018-09-25T03:01:22.152Z,1030.46
2018-09-25T03:02:22.096Z,1030.45
2018-09-25T03:03:22.079Z,1030.49
2018-09-25T03:04:22.051Z,1030.46
2018-09-25T03:05:22.033Z,1030.53
2018-09-25T03:06:22.010Z,1030.55
2018-09-25T03:07:21.987Z,1030.54
2018-09-25T03:08:21.964Z,1030.56
2018-09-25T03:09:21.943Z,1030.52
2018-09-25T03:10:21.981Z,1030.49
2018-09-25T03:11:21.896Z,1030.48
2018-09-25T03:12:21.876Z,1030.50
2018-09-25T03:13:21.852Z,1030.49
2018-09-25T03:14:21.828Z,1030.49
2018-09-25T03:15:21.817Z,1030.47
2018-09-25T03:16:21.786Z,1030.46
2018-09-25T03:17:21.763Z,1030.47
2018-09-25T03:18:21.740Z,1030.45
2018-09-25T03:19:21.773Z,1030.45
2018-09-25T03:20:21.730Z,1030.45
2018-09-25T03:21:21.674Z,1030.46
2018-09-25T03:22:21.652Z,1030.43
2018-09-25T03:23:21.638Z,1030.44
2018-09-25T03:24:21.608Z,1030.41
2018-09-25T03:25:21.585Z,1030.33
2018-09-25T03:26:21.567Z,1030.36
2018-09-25T03:27:21.540Z,1030.38
2018-09-25T03:28:21.518Z,1030.31
2018-09-25T03:29:21.496Z,1030.33
2018-09-25T03:30:21.475Z,1030.36
2018-09-25T03:31:21.456Z,1030.32
2018-09-25T03:32:21.429Z,1030.33
2018-09-25T03:33:21.407Z,1030.35
2018-09-25T03:34:21.394Z,1030.38
2018-09-25T03:35:21.364Z,1030.35
2018-09-25T03:36:21.339Z,1030.39
2018-09-25T03:37:21.318Z,1030.36
2018-09-25T03:38:21.294Z,1030.34
2018-09-25T03:39:21.274Z,1030.33
2018-09-25T03:40:21.253Z,1030.35
2018-09-25T03:41:21.271Z,1030.35
2018-09-25T03:42:21.207Z,1030.38
2018-09-25T03:43:21.184Z,1030.36
2018-09-25T03:44:21.163Z,1030.36
2018-09-25T03:45:21.139Z,1030.35
2018-09-25T03:46:21.118Z,1030.34
2018-09-25T03:47:21.094Z,1030.36
2018-09-25T03:48:21.086Z,1030.30
2018-09-25T03:49:21.050Z,1030.28
2018-09-25T03:50:21.030Z,1030.31
2018-09-25T03:51:21.006Z,1030.31
2018-09-25T03:52:20.983Z,1030.33
2018-09-25T03:53:20.959Z,1030.37
2018-09-25T03:54:20.938Z,1030.35
2018-09-25T03:55:20.924Z,1030.39
2018-09-25T03:56:20.894Z,1030.34
2018-09-25T03:57:20.870Z,1030.33
2018-09-25T03:58:20.849Z,1030.35
2018-09-25T03:59:20.827Z,1030.38
2018-09-25T04:00:20.807Z,1030.38
2018-09-25T04:01:20.784Z,1030.40
2018-09-25T04:02:20.760Z,1030.46
2018-09-25T04:03:20.791Z,1030.44
2018-09-25T04:04:20.722Z,1030.46
2018-09-25T04:05:20.707Z,1030.45
2018-09-25T04:06:20.701Z,1030.46
2018-09-25T04:07:20.653Z,1030.47
2018-09-25T04:08:20.627Z,1030.46
2018-09-25T04:09:20.612Z,1030.44
2018-09-25T04:10:20.581Z,1030.45
2018-09-25T04:11:20.566Z,1030.47
2018-09-25T04:12:20.537Z,1030.46
2018-09-25T04:13:20.514Z,1030.49
2018-09-25T04:14:20.493Z,1030.51
2018-09-25T04:15:20.470Z,1030.53
2018-09-25T04:16:20.454Z,1030.52
2018-09-25T04:17:20.429Z,1030.56
2018-09-25T04:18:20.406Z,1030.55
2018-09-25T04:19:20.380Z,1030.56
2018-09-25T04:20:20.361Z,1030.60
2018-09-25T04:21:20.335Z,1030.61
2018-09-25T04:22:20.311Z,1030.62
2018-09-25T04:23:20.290Z,1030.65
2018-09-25T04:24:20.269Z,1030.64
2018-09-25T04:25:20.248Z,1030.66
2018-09-25T04:26:20.224Z,1030.65
2018-09-25T04:27:20.199Z,1030.69
2018-09-25T04:28:20.226Z,1030.68
2018-09-25T04:29:20.154Z,1030.71
2018-09-25T04:30:20.134Z,1030.75
2018-09-25T04:31:20.113Z,1030.73
2018-09-25T04:32:20.094Z,1030.82
2018-09-25T04:33:20.066Z,1030.77
2018-09-25T04:34:20.044Z,1030.82
2018-09-25T04:35:20.024Z,1030.79
2018-09-25T04:36:20.003Z,1030.82
2018-09-25T04:37:19.976Z,1030.84
2018-09-25T04:38:20.458Z,1030.84
2018-09-25T04:39:19.942Z,1030.82
2018-09-25T04:40:19.994Z,1030.83
2018-09-25T04:41:19.886Z,1030.82
2018-09-25T04:42:19.873Z,1030.82
2018-09-25T04:43:19.840Z,1030.81
2018-09-25T04:44:19.818Z,1030.83
2018-09-25T04:45:19.795Z,1030.86
2018-09-25T04:46:19.773Z,1030.91
2018-09-25T04:47:19.750Z,1030.87
2018-09-25T04:48:19.732Z,1030.92
2018-09-25T04:49:19.705Z,1030.90
2018-09-25T04:50:19.685Z,1030.89
2018-09-25T04:51:19.661Z,1030.86
2018-09-25T04:52:19.638Z,1030.85
2018-09-25T04:53:19.624Z,1030.84
2018-09-25T04:54:19.599Z,1030.84
2018-09-25T04:55:19.583Z,1030.85
2018-09-25T04:56:19.549Z,1030.88
2018-09-25T04:57:19.527Z,1030.85
2018-09-25T04:58:19.512Z,1030.88
2018-09-25T04:59:19.498Z,1030.86
2018-09-25T05:00:19.459Z,1030.86
2018-09-25T05:01:19.446Z,1030.86
2018-09-25T05:02:19.413Z,1030.86
2018-09-25T05:03:19.390Z,1030.90
2018-09-25T05:04:19.369Z,1030.90
2018-09-25T05:05:19.354Z,1030.91
2018-09-25T05:06:19.321Z,1030.93
2018-09-25T05:07:19.300Z,1030.96
2018-09-25T05:08:19.290Z,1030.91
2018-09-25T05:09:19.257Z,1030.92
2018-09-25T05:10:19.234Z,1030.94
2018-09-25T05:11:19.212Z,1030.93
2018-09-25T05:12:19.192Z,1030.93
2018-09-25T05:13:19.167Z,1030.98
2018-09-25T05:14:19.143Z,1030.98
2018-09-25T05:15:19.121Z,1030.98
2018-09-25T05:16:19.097Z,1030.97
2018-09-25T05:17:19.095Z,1030.96
2018-09-25T05:18:19.052Z,1030.94
2018-09-25T05:19:19.031Z,1030.92
2018-09-25T05:20:19.006Z,1030.94
2018-09-25T05:21:18.983Z,1030.95
2018-09-25T05:22:18.961Z,1030.99
2018-09-25T05:23:18.988Z,1031.00
2018-09-25T05:24:18.921Z,1030.99
2018-09-25T05:25:18.895Z,1030.98
2018-09-25T05:26:18.875Z,1031.01
2018-09-25T05:27:18.849Z,1030.95
2018-09-25T05:28:18.824Z,1030.97
2018-09-25T05:29:18.803Z,1030.98
2018-09-25T05:30:18.804Z,1030.97
2018-09-25T05:31:18.762Z,1030.97
2018-09-25T05:32:18.747Z,1030.96
2018-09-25T05:33:18.715Z,1030.97
2018-09-25T05:34:18.690Z,1030.96
2018-09-25T05:35:18.667Z,1030.97
2018-09-25T05:36:18.687Z,1031.01
2018-09-25T05:37:18.620Z,1030.98
2018-09-25T05:38:18.604Z,1030.98
2018-09-25T05:39:18.585Z,1031.02
2018-09-25T05:40:18.554Z,1031.02
2018-09-25T05:41:18.529Z,1031.04
2018-09-25T05:42:18.516Z,1031.04
2018-09-25T05:43:18.490Z,1031.04
2018-09-25T05:44:18.462Z,1031.06
2018-09-25T05:45:18.442Z,1031.05
2018-09-25T05:46:18.417Z,1031.10
2018-09-25T05:47:18.395Z,1031.09
2018-09-25T05:48:18.443Z,1031.08
2018-09-25T05:49:18.348Z,1031.11
2018-09-25T05:50:18.328Z,1031.14
2018-09-25T05:51:18.304Z,1031.14
2018-09-25T05:52:18.283Z,1031.18
2018-09-25T05:53:18.258Z,1031.20
2018-09-25T05:54:18.261Z,1031.20
2018-09-25T05:55:18.216Z,1031.18
2018-09-25T05:56:18.190Z,1031.21
2018-09-25T05:57:18.168Z,1031.23
2018-09-25T05:58:18.144Z,1031.21
2018-09-25T05:59:18.121Z,1031.22
2018-09-25T06:00:18.099Z,1031.18
2018-09-25T06:01:18.075Z,1031.19
2018-09-25T06:02:18.056Z,1031.23
2018-09-25T06:03:18.040Z,1031.24
2018-09-25T06:04:18.011Z,1031.22
2018-09-25T06:05:17.986Z,1031.22
2018-09-25T06:06:17.962Z,1031.24
2018-09-25T06:07:17.940Z,1031.27
2018-09-25T06:08:17.919Z,1031.26
2018-09-25T06:09:17.953Z,1031.28
2018-09-25T06:10:17.872Z,1031.24
2018-09-25T06:11:17.851Z,1031.30
2018-09-25T06:12:17.834Z,1031.28
2018-09-25T06:13:17.804Z,1031.29
2018-09-25T06:14:17.781Z,1031.34
2018-09-25T06:15:17.758Z,1031.30
2018-09-25T06:16:17.737Z,1031.35
2018-09-25T06:17:17.713Z,1031.36
2018-09-25T06:18:17.688Z,1031.33
2018-09-25T06:19:17.672Z,1031.30
2018-09-25T06:20:17.644Z,1031.39
2018-09-25T06:21:17.624Z,1031.41
2018-09-25T06:22:17.599Z,1031.39
2018-09-25T06:23:17.576Z,1031.37
2018-09-25T06:24:17.553Z,1031.40
2018-09-25T06:25:17.538Z,1031.38
2018-09-25T06:26:17.508Z,1031.41
2018-09-25T06:27:17.493Z,1031.41
2018-09-25T06:28:17.464Z,1031.45
2018-09-25T06:29:17.445Z,1031.47
2018-09-25T06:30:17.425Z,1031.45
2018-09-25T06:31:17.393Z,1031.47
2018-09-25T06:32:17.383Z,1031.47
2018-09-25T06:33:17.349Z,1031.51
2018-09-25T06:34:17.353Z,1031.49
2018-09-25T06:35:17.317Z,1031.49
2018-09-25T06:36:17.283Z,1031.50
2018-09-25T06:37:17.311Z,1031.51
2018-09-25T06:38:17.235Z,1031.57
2018-09-25T06:39:17.214Z,1031.59
2018-09-25T06:40:17.193Z,1031.59
2018-09-25T06:41:17.181Z,1031.61
2018-09-25T06:42:17.147Z,1031.61
2018-09-25T06:43:17.122Z,1031.61
2018-09-25T06:44:17.100Z,1031.61
2018-09-25T06:45:17.076Z,1031.62
2018-09-25T06:46:17.062Z,1031.62
2018-09-25T06:47:17.057Z,1031.59
2018-09-25T06:48:17.010Z,1031.66
2018-09-25T06:49:16.988Z,1031.61
2018-09-25T06:50:16.971Z,1031.61
2018-09-25T06:51:16.941Z,1031.63
2018-09-25T06:52:16.919Z,1031.61
2018-09-25T06:53:16.898Z,1031.65
2018-09-25T06:54:16.880Z,1031.65
2018-09-25T06:55:16.930Z,1031.69
2018-09-25T06:56:16.837Z,1031.69
2018-09-25T06:57:16.806Z,1031.72
2018-09-25T06:58:16.788Z,1031.75
2018-09-25T06:59:16.762Z,1031.76
2018-09-25T07:00:16.739Z,1031.75
2018-09-25T07:01:16.723Z,1031.80
2018-09-25T07:02:16.692Z,1031.77
2018-09-25T07:03:16.671Z,1031.74
2018-09-25T07:04:16.648Z,1031.76
2018-09-25T07:05:16.632Z,1031.78
2018-09-25T07:06:16.606Z,1031.79
2018-09-25T07:07:16.582Z,1031.79
2018-09-25T07:08:16.557Z,1031.78
2018-09-25T07:09:16.535Z,1031.82
2018-09-25T07:10:16.628Z,1031.82
2018-09-25T07:11:16.490Z,1031.89
2018-09-25T07:12:16.467Z,1031.90
2018-09-25T07:13:16.445Z,1031.90
2018-09-25T07:14:16.421Z,1031.90
2018-09-25T07:15:16.400Z,1031.88
2018-09-25T07:16:16.376Z,1031.87
2018-09-25T07:17:16.354Z,1031.88
2018-09-25T07:18:16.334Z,1031.90
2018-09-25T07:19:16.311Z,1031.89
2018-09-25T07:20:16.288Z,1031.89
2018-09-25T07:21:16.265Z,1031.91
2018-09-25T07:22:16.253Z,1031.93
2018-09-25T07:23:16.220Z,1031.92
2018-09-25T07:24:16.200Z,1031.92
2018-09-25T07:25:16.176Z,1031.93
2018-09-25T07:26:16.153Z,1031.94
2018-09-25T07:27:16.132Z,1031.96
2018-09-25T07:28:16.110Z,1031.96
2018-09-25T07:29:16.089Z,1031.99
2018-09-25T07:30:16.071Z,1031.97
2018-09-25T07:31:16.043Z,1031.99
2018-09-25T07:32:16.023Z,1031.97
2018-09-25T07:33:15.998Z,1031.96
2018-09-25T07:34:15.975Z,1031.98
2018-09-25T07:35:15.957Z,1031.99
2018-09-25T07:36:15.944Z,1032.01
2018-09-25T07:37:15.909Z,1032.02
2018-09-25T07:38:15.885Z,1032.05
2018-09-25T07:39:15.865Z,1032.04
2018-09-25T07:40:15.843Z,1032.07
2018-09-25T07:41:15.822Z,1032.09
2018-09-25T07:42:15.804Z,1032.13
2018-09-25T07:43:15.781Z,1032.16
2018-09-25T07:44:15.755Z,1032.18
2018-09-25T07:45:15.730Z,1032.16
2018-09-25T07:46:15.710Z,1032.21
2018-09-25T07:47:15.701Z,1032.19
2018-09-25T07:48:15.686Z,1032.22
2018-09-25T07:49:15.643Z,1032.23
2018-09-25T07:50:15.621Z,1032.24
2018-09-25T07:51:15.601Z,1032.24
2018-09-25T07:52:15.578Z,1032.27
2018-09-25T07:53:15.556Z,1032.27
2018-09-25T07:54:15.532Z,1032.29
2018-09-25T07:55:15.509Z,1032.33
2018-09-25T07:56:15.494Z,1032.31
2018-09-25T07:57:15.467Z,1032.40
2018-09-25T07:58:15.443Z,1032.34
2018-09-25T07:59:15.423Z,1032.36
2018-09-25T08:00:15.411Z,1032.36
2018-09-25T08:01:15.378Z,1032.39
2018-09-25T08:02:15.359Z,1032.41
2018-09-25T08:03:15.434Z,1032.45
2018-09-25T08:04:15.313Z,1032.45
2018-09-25T08:05:15.292Z,1032.42
2018-09-25T08:06:15.268Z,1032.45
2018-09-25T08:07:15.248Z,1032.41
2018-09-25T08:08:15.225Z,1032.42
2018-09-25T08:09:15.203Z,1032.42
2018-09-25T08:10:15.181Z,1032.40
2018-09-25T08:11:15.161Z,1032.40
2018-09-25T08:12:15.137Z,1032.39
2018-09-25T08:13:15.117Z,1032.41
2018-09-25T08:14:15.095Z,1032.42
2018-09-25T08:15:15.086Z,1032.43
2018-09-25T08:16:15.050Z,1032.44
2018-09-25T08:17:15.044Z,1032.41
2018-09-25T08:18:15.006Z,1032.42
2018-09-25T08:19:14.985Z,1032.46
2018-09-25T08:20:14.965Z,1032.45
2018-09-25T08:21:14.945Z,1032.45
2018-09-25T08:22:14.924Z,1032.46
2018-09-25T08:23:14.902Z,1032.47
2018-09-25T08:24:14.882Z,1032.48
2018-09-25T08:25:14.858Z,1032.47
2018-09-25T08:26:14.832Z,1032.50
2018-09-25T08:27:14.812Z,1032.51
2018-09-25T08:28:14.792Z,1032.56
2018-09-25T08:29:14.768Z,1032.53
2018-09-25T08:30:14.750Z,1032.52
2018-09-25T08:31:14.726Z,1032.54
2018-09-25T08:32:14.717Z,1032.51
2018-09-25T08:33:14.699Z,1032.54
2018-09-25T08:34:14.660Z,1032.56
2018-09-25T08:35:14.638Z,1032.53
2018-09-25T08:36:14.622Z,1032.58
2018-09-25T08:37:14.596Z,1032.58
2018-09-25T08:38:14.574Z,1032.56
2018-09-25T08:39:14.649Z,1032.62
2018-09-25T08:40:14.537Z,1032.59
2018-09-25T08:41:14.508Z,1032.64
2018-09-25T08:42:14.492Z,1032.67
2018-09-25T08:43:14.465Z,1032.63
2018-09-25T08:44:14.444Z,1032.68
2018-09-25T08:45:14.426Z,1032.66
2018-09-25T08:46:14.400Z,1032.69
2018-09-25T08:47:14.381Z,1032.72
2018-09-25T08:48:14.357Z,1032.68
2018-09-25T08:49:14.335Z,1032.73
2018-09-25T08:50:14.318Z,1032.71
2018-09-25T08:51:14.294Z,1032.71
2018-09-25T08:52:14.271Z,1032.73
2018-09-25T08:53:14.250Z,1032.75
2018-09-25T08:54:14.228Z,1032.78
2018-09-25T08:55:14.207Z,1032.76
2018-09-25T08:56:14.190Z,1032.81
2018-09-25T08:57:14.164Z,1032.80
2018-09-25T08:58:14.155Z,1032.83
2018-09-25T08:59:14.124Z,1032.83
2018-09-25T09:00:14.102Z,1032.87
2018-09-25T09:01:14.080Z,1032.87
2018-09-25T09:02:14.057Z,1032.84
2018-09-25T09:03:14.043Z,1032.89
2018-09-25T09:04:14.016Z,1032.83
2018-09-25T09:05:13.999Z,1032.83
2018-09-25T09:06:13.975Z,1032.82
2018-09-25T09:07:13.959Z,1032.82
2018-09-25T09:08:13.939Z,1032.78
2018-09-25T09:09:13.928Z,1032.82
2018-09-25T09:10:13.886Z,1032.81
2018-09-25T09:11:13.866Z,1032.80
2018-09-25T09:12:13.843Z,1032.84
2018-09-25T09:13:13.840Z,1032.82
2018-09-25T09:14:13.804Z,1032.82
2018-09-25T09:15:13.780Z,1032.87
2018-09-25T09:16:13.767Z,1032.85
2018-09-25T09:17:13.738Z,1032.87
2018-09-25T09:18:13.724Z,1032.81
2018-09-25T09:19:13.696Z,1032.83
2018-09-25T09:20:13.738Z,1032.83
2018-09-25T09:21:13.655Z,1032.81
2018-09-25T09:22:13.632Z,1032.82
2018-09-25T09:23:13.612Z,1032.83
2018-09-25T09:24:13.590Z,1032.83
2018-09-25T09:25:13.616Z,1032.83
2018-09-25T09:26:13.548Z,1032.86
2018-09-25T09:27:13.565Z,1032.82
2018-09-25T09:28:13.505Z,1032.81
2018-09-25T09:29:13.486Z,1032.82
2018-09-25T09:30:13.465Z,1032.84
2018-09-25T09:31:13.452Z,1032.81
2018-09-25T09:32:13.419Z,1032.83
2018-09-25T09:33:13.401Z,1032.82
2018-09-25T09:34:13.387Z,1032.81
2018-09-25T09:35:13.359Z,1032.77
2018-09-25T09:36:13.340Z,1032.76
2018-09-25T09:37:13.317Z,1032.77
2018-09-25T09:38:13.294Z,1032.77
2018-09-25T09:39:13.273Z,1032.77
2018-09-25T09:40:13.259Z,1032.75
2018-09-25T09:41:13.249Z,1032.73
2018-09-25T09:42:13.219Z,1032.75
2018-09-25T09:43:13.193Z,1032.76
2018-09-25T09:44:13.170Z,1032.74
2018-09-25T09:45:13.148Z,1032.76
2018-09-25T09:46:13.126Z,1032.71
2018-09-25T09:47:13.110Z,1032.71
2018-09-25T09:48:13.086Z,1032.72
2018-09-25T09:49:13.066Z,1032.70
2018-09-25T09:50:13.066Z,1032.72
2018-09-25T09:51:13.035Z,1032.73
2018-09-25T09:52:13.001Z,1032.78
2018-09-25T09:53:12.982Z,1032.72
2018-09-25T09:54:12.965Z,1032.75
2018-09-25T09:55:12.938Z,1032.75
2018-09-25T09:56:12.930Z,1032.74
2018-09-25T09:57:12.896Z,1032.77
2018-09-25T09:58:12.878Z,1032.79
2018-09-25T09:59:12.856Z,1032.78
2018-09-25T10:00:12.835Z,1032.82
2018-09-25T10:01:12.815Z,1032.80
2018-09-25T10:02:12.792Z,1032.75
2018-09-25T10:03:12.793Z,1032.76
2018-09-25T10:04:12.753Z,1032.77
2018-09-25T10:05:12.731Z,1032.77
2018-09-25T10:06:12.719Z,1032.78
2018-09-25T10:07:12.800Z,1032.82
2018-09-25T10:08:12.686Z,1032.81
2018-09-25T10:09:12.648Z,1032.90
2018-09-25T10:10:12.626Z,1032.87
2018-09-25T10:11:12.607Z,1032.84
2018-09-25T10:12:12.586Z,1032.83
2018-09-25T10:13:12.564Z,1032.81
2018-09-25T10:14:12.544Z,1032.82
2018-09-25T10:15:12.523Z,1032.83
2018-09-25T10:16:12.503Z,1032.82
2018-09-25T10:17:12.484Z,1032.82
2018-09-25T10:18:12.475Z,1032.80
2018-09-25T10:19:12.445Z,1032.84
2018-09-25T10:20:12.421Z,1032.84
2018-09-25T10:21:12.400Z,1032.83
2018-09-25T10:22:12.379Z,1032.81
2018-09-25T10:23:12.357Z,1032.85
2018-09-25T10:24:12.338Z,1032.85
2018-09-25T10:25:12.318Z,1032.89
2018-09-25T10:26:12.296Z,1032.86
2018-09-25T10:27:12.304Z,1032.84
2018-09-25T10:28:12.260Z,1032.85
2018-09-25T10:29:12.236Z,1032.85
2018-09-25T10:30:12.219Z,1032.81
2018-09-25T10:31:12.198Z,1032.85
2018-09-25T10:32:12.175Z,1032.88
2018-09-25T10:33:12.154Z,1032.86
2018-09-25T10:34:12.196Z,1032.81
2018-09-25T10:35:12.112Z,1032.80
2018-09-25T10:36:12.094Z,1032.78
2018-09-25T10:37:12.073Z,1032.79
2018-09-25T10:38:12.053Z,1032.84
2018-09-25T10:39:12.033Z,1032.81
2018-09-25T10:40:12.017Z,1032.81
2018-09-25T10:41:11.991Z,1032.81
2018-09-25T10:42:11.983Z,1032.81
2018-09-25T10:43:11.956Z,1032.80
2018-09-25T10:44:11.935Z,1032.82
2018-09-25T10:45:11.919Z,1032.81
2018-09-25T10:46:11.890Z,1032.79
2018-09-25T10:47:11.870Z,1032.77
2018-09-25T10:48:11.848Z,1032.79
2018-09-25T10:49:11.834Z,1032.81
2018-09-25T10:50:11.815Z,1032.80
2018-09-25T10:51:11.788Z,1032.80
2018-09-25T10:52:11.770Z,1032.77
2018-09-25T10:53:11.748Z,1032.76
2018-09-25T10:54:11.728Z,1032.77
2018-09-25T10:55:11.709Z,1032.81
2018-09-25T10:56:11.775Z,1032.84
2018-09-25T10:57:11.679Z,1032.83
2018-09-25T10:58:11.649Z,1032.84
2018-09-25T10:59:11.634Z,1032.85
2018-09-25T11:00:11.610Z,1032.81
2018-09-25T11:01:11.588Z,1032.82
2018-09-25T11:02:11.566Z,1032.82
2018-09-25T11:03:11.676Z,1032.79
2018-09-25T11:04:11.529Z,1032.83
2018-09-25T11:05:11.509Z,1032.82
2018-09-25T11:06:11.488Z,1032.85
2018-09-25T11:07:11.471Z,1032.85
2018-09-25T11:08:11.454Z,1032.85
2018-09-25T11:09:11.426Z,1032.88
2018-09-25T11:10:11.475Z,1032.86
2018-09-25T11:11:11.389Z,1032.90
2018-09-25T11:12:11.452Z,1032.88
2018-09-25T11:13:11.351Z,1032.93
2018-09-25T11:14:11.329Z,1032.90
2018-09-25T11:15:11.310Z,1032.88
2018-09-25T11:16:11.287Z,1032.93
2018-09-25T11:17:11.266Z,1032.92
2018-09-25T11:18:11.250Z,1032.92
2018-09-25T11:19:11.234Z,1032.92
2018-09-25T11:20:11.208Z,1032.90
2018-09-25T11:21:11.189Z,1032.85
2018-09-25T11:22:11.170Z,1032.87
2018-09-25T11:23:11.145Z,1032.86
2018-09-25T11:24:11.127Z,1032.86
2018-09-25T11:25:11.137Z,1032.86
2018-09-25T11:26:11.089Z,1032.83
2018-09-25T11:27:11.073Z,1032.85
2018-09-25T11:28:11.047Z,1032.86
2018-09-25T11:29:11.029Z,1032.83
2018-09-25T11:30:11.029Z,1032.82
2018-09-25T11:31:11.001Z,1032.76
2018-09-25T11:32:10.984Z,1032.77
2018-09-25T11:33:10.954Z,1032.73
2018-09-25T11:34:10.927Z,1032.71
2018-09-25T11:35:10.951Z,1032.72
2018-09-25T11:36:10.892Z,1032.73
2018-09-25T11:37:10.875Z,1032.67
2018-09-25T11:38:10.851Z,1032.66
2018-09-25T11:39:10.826Z,1032.66
2018-09-25T11:40:10.809Z,1032.64
2018-09-25T11:41:10.832Z,1032.68
2018-09-25T11:42:10.771Z,1032.64
2018-09-25T11:43:10.750Z,1032.62
2018-09-25T11:44:10.736Z,1032.64
2018-09-25T11:45:10.710Z,1032.60
2018-09-25T11:46:10.690Z,1032.60
2018-09-25T11:47:10.695Z,1032.58
2018-09-25T11:48:10.649Z,1032.61
2018-09-25T11:49:10.629Z,1032.55
2018-09-25T11:50:10.613Z,1032.56
2018-09-25T11:51:10.597Z,1032.54
2018-09-25T11:52:10.573Z,1032.52
2018-09-25T11:53:10.551Z,1032.54
2018-09-25T11:54:10.530Z,1032.54
2018-09-25T11:55:10.511Z,1032.54
2018-09-25T11:56:10.526Z,1032.58
2018-09-25T11:57:10.472Z,1032.57
2018-09-25T11:58:10.452Z,1032.57
2018-09-25T11:59:10.433Z,1032.64
2018-09-25T12:00:10.413Z,1032.61
2018-09-25T12:01:10.395Z,1032.62
2018-09-25T12:02:10.426Z,1032.64
2018-09-25T12:03:10.353Z,1032.60
2018-09-25T12:04:10.335Z,1032.58
2018-09-25T12:05:10.313Z,1032.54